sensor_id;sensor_type;location;lat;lon;timestamp;pressure;altitude;pressure_sealevel;temperature;humidity
14273;BME280;7220;49.450;11.052;2022-10-16T08:46:05;98331.06;;;16.76;100.00
14273;BME280;7220;49.450;11.052;2022-10-16T08:50:14;98332.56;;;16.80;100.00
14273;BME280;7220;49.450;11.052;2022-10-16T08:54:31;98332.56;;;16.80;100.00
14273;BME280;7220;49.450;11.052;2022-10-16T08:58:34;98338.19;;;16.88;100.00
14273;BME280;7220;49.450;11.052;2022-10-16T09:02:37;98333.59;;;17.02;100.00
14273;BME280;7220;49.450;11.052;2022-10-16T09:06:57;98338.00;;;17.14;100.00
14273;BME280;7220;49.450;11.052;2022-10-16T09:19:32;98343.97;;;17.52;100.00
14273;BME280;7220;49.450;11.052;2022-10-16T09:23:37;98347.41;;;17.54;100.00
14273;BME280;7220;49.450;11.052;2022-10-16T09:27:38;98353.63;;;17.55;100.00
14273;BME280;7220;49.450;11.052;2022-10-16T09:31:38;98349.50;;;17.50;100.00
14273;BME280;7220;49.450;11.052;2022-10-16T09:35:44;98363.66;;;17.41;100.00
14273;BME280;7220;49.450;11.052;2022-10-16T09:39:46;98364.63;;;17.29;100.00
14273;BME280;7220;49.450;11.052;2022-10-16T09:43:57;98372.66;;;17.17;100.00
14273;BME280;7220;49.450;11.052;2022-10-16T09:48:01;98376.81;;;17.10;100.00
14273;BME280;7220;49.450;11.052;2022-10-16T09:52:14;98369.25;;;17.04;100.00
14273;BME280;7220;49.450;11.052;2022-10-16T09:56:29;98359.69;;;17.00;100.00
14273;BME280;7220;49.450;11.052;2022-10-16T10:00:30;98361.94;;;17.06;100.00
14273;BME280;7220;49.450;11.052;2022-10-16T10:04:39;98379.53;;;17.22;100.00
14273;BME280;7220;49.450;11.052;2022-10-16T10:08:40;98372.94;;;17.37;100.00
14273;BME280;7220;49.450;11.052;2022-10-16T10:12:41;98373.16;;;17.57;100.00
14273;BME280;7220;49.450;11.052;2022-10-16T10:16:41;98365.81;;;17.81;100.00
14273;BME280;7220;49.450;11.052;2022-10-16T10:20:42;98374.25;;;18.00;100.00
14273;BME280;7220;49.450;11.052;2022-10-16T10:24:44;98370.47;;;18.02;100.00
14273;BME280;7220;49.450;11.052;2022-10-16T10:33:19;98377.53;;;18.15;100.00
14273;BME280;7220;49.450;11.052;2022-10-16T10:42:07;98380.38;;;18.45;100.00
14273;BME280;7220;49.450;11.052;2022-10-16T10:46:16;98384.00;;;18.56;100.00
14273;BME280;7220;49.450;11.052;2022-10-16T10:50:25;98380.03;;;18.71;100.00
14273;BME280;7220;49.450;11.052;2022-10-16T10:54:44;98365.06;;;18.79;100.00
14273;BME280;7220;49.450;11.052;2022-10-16T10:59:02;98370.19;;;18.82;100.00
14273;BME280;7220;49.450;11.052;2022-10-16T11:07:34;98376.75;;;18.89;100.00
14273;BME280;7220;49.450;11.052;2022-10-16T11:11:44;98375.63;;;18.91;100.00
14273;BME280;7220;49.450;11.052;2022-10-16T11:15:47;98376.00;;;18.98;99.87
14273;BME280;7220;49.450;11.052;2022-10-16T11:20:25;98383.00;;;19.11;99.46
14273;BME280;7220;49.450;11.052;2022-10-16T11:24:29;98383.84;;;19.32;97.89
14273;BME280;7220;49.450;11.052;2022-10-16T11:28:39;98384.75;;;19.43;97.11
14273;BME280;7220;49.450;11.052;2022-10-16T11:33:08;98376.84;;;19.51;95.72
14273;BME280;7220;49.450;11.052;2022-10-16T11:37:14;98391.34;;;19.60;94.84
14273;BME280;7220;49.450;11.052;2022-10-16T11:41:22;98380.34;;;19.73;95.46
14273;BME280;7220;49.450;11.052;2022-10-16T11:45:42;98375.84;;;20.33;92.95
14273;BME280;7220;49.450;11.052;2022-10-16T11:49:45;98379.47;;;21.40;86.78
14273;BME280;7220;49.450;11.052;2022-10-16T11:58:33;98388.84;;;21.84;83.79
14273;BME280;7220;49.450;11.052;2022-10-16T12:11:07;98381.94;;;25.06;67.65
14273;BME280;7220;49.450;11.052;2022-10-16T12:15:21;98377.38;;;26.19;62.35
14273;BME280;7220;49.450;11.052;2022-10-16T12:19:22;98392.94;;;27.49;55.69
14273;BME280;7220;49.450;11.052;2022-10-16T12:23:23;98377.78;;;28.22;54.00
14273;BME280;7220;49.450;11.052;2022-10-16T12:27:26;98374.59;;;28.76;52.99
14273;BME280;7220;49.450;11.052;2022-10-16T12:31:35;98372.28;;;28.37;53.43
14273;BME280;7220;49.450;11.052;2022-10-16T12:35:42;98372.38;;;26.85;56.67
14273;BME280;7220;49.450;11.052;2022-10-16T12:39:44;98376.03;;;25.75;59.78
14273;BME280;7220;49.450;11.052;2022-10-16T12:43:45;98364.25;;;25.01;61.78
14273;BME280;7220;49.450;11.052;2022-10-16T12:47:47;98368.66;;;24.69;63.67
14273;BME280;7220;49.450;11.052;2022-10-16T12:51:48;98366.59;;;24.63;64.40
14273;BME280;7220;49.450;11.052;2022-10-16T12:55:52;98374.00;;;24.36;64.90
14273;BME280;7220;49.450;11.052;2022-10-16T13:00:11;98370.78;;;24.33;64.68
14273;BME280;7220;49.450;11.052;2022-10-16T13:16:30;98387.66;;;25.35;63.82
14273;BME280;7220;49.450;11.052;2022-10-16T13:29:00;98386.53;;;27.04;56.97
14273;BME280;7220;49.450;11.052;2022-10-16T13:33:02;98381.97;;;26.50;56.42
14273;BME280;7220;49.450;11.052;2022-10-16T13:37:15;98379.72;;;25.82;56.64
14273;BME280;7220;49.450;11.052;2022-10-16T13:41:17;98387.84;;;25.98;56.03
14273;BME280;7220;49.450;11.052;2022-10-16T13:45:19;98386.59;;;27.34;51.94
14273;BME280;7220;49.450;11.052;2022-10-16T13:49:19;98396.28;;;28.20;49.24
14273;BME280;7220;49.450;11.052;2022-10-16T13:53:20;98396.78;;;28.67;48.68
14273;BME280;7220;49.450;11.052;2022-10-16T13:57:21;98398.34;;;28.54;48.71
14273;BME280;7220;49.450;11.052;2022-10-16T14:01:27;98392.69;;;28.04;49.53
14273;BME280;7220;49.450;11.052;2022-10-16T14:05:28;98406.03;;;27.99;48.58
14273;BME280;7220;49.450;11.052;2022-10-16T14:09:29;98397.91;;;28.36;47.04
14273;BME280;7220;49.450;11.052;2022-10-16T14:13:37;98404.94;;;28.08;47.49
14273;BME280;7220;49.450;11.052;2022-10-16T14:17:48;98403.81;;;27.73;48.75
14273;BME280;7220;49.450;11.052;2022-10-16T14:21:50;98415.03;;;27.01;49.54
14273;BME280;7220;49.450;11.052;2022-10-16T14:25:51;98402.50;;;26.37;50.44
14273;BME280;7220;49.450;11.052;2022-10-16T14:30:01;98399.31;;;25.77;51.77
14273;BME280;7220;49.450;11.052;2022-10-16T14:34:03;98409.44;;;25.11;53.06
14273;BME280;7220;49.450;11.052;2022-10-16T14:38:04;98402.41;;;24.58;54.92
14273;BME280;7220;49.450;11.052;2022-10-16T14:42:11;98403.16;;;24.18;57.42
14273;BME280;7220;49.450;11.052;2022-10-16T14:46:22;98394.88;;;23.85;64.63
14273;BME280;7220;49.450;11.052;2022-10-16T14:50:28;98396.72;;;24.19;62.29
14273;BME280;7220;49.450;11.052;2022-10-16T14:54:28;98402.97;;;23.76;59.23
14273;BME280;7220;49.450;11.052;2022-10-16T14:58:29;98401.88;;;23.35;61.11
14273;BME280;7220;49.450;11.052;2022-10-16T15:02:31;98408.56;;;23.04;62.29
14273;BME280;7220;49.450;11.052;2022-10-16T15:06:33;98412.94;;;22.79;63.69
14273;BME280;7220;49.450;11.052;2022-10-16T15:10:38;98406.13;;;22.57;64.50
14273;BME280;7220;49.450;11.052;2022-10-16T15:14:39;98414.19;;;22.38;65.84
14273;BME280;7220;49.450;11.052;2022-10-16T15:18:40;98418.28;;;22.25;66.29
14273;BME280;7220;49.450;11.052;2022-10-16T15:22:40;98408.75;;;21.93;67.98
14273;BME280;7220;49.450;11.052;2022-10-16T15:26:40;98408.16;;;21.71;69.99
14273;BME280;7220;49.450;11.052;2022-10-16T15:30:41;98407.22;;;21.42;70.85
14273;BME280;7220;49.450;11.052;2022-10-16T15:34:42;98429.72;;;21.33;71.58
14273;BME280;7220;49.450;11.052;2022-10-16T15:38:42;98434.44;;;21.21;72.11
14273;BME280;7220;49.450;11.052;2022-10-16T15:42:43;98429.47;;;21.07;73.49
14273;BME280;7220;49.450;11.052;2022-10-16T15:46:43;98438.72;;;20.85;74.52
14273;BME280;7220;49.450;11.052;2022-10-16T15:50:43;98448.31;;;20.68;75.93
14273;BME280;7220;49.450;11.052;2022-10-16T15:54:44;98434.50;;;20.51;77.54
14273;BME280;7220;49.450;11.052;2022-10-16T15:58:44;98451.00;;;20.38;78.29
14273;BME280;7220;49.450;11.052;2022-10-16T16:02:50;98447.56;;;20.26;79.06
14273;BME280;7220;49.450;11.052;2022-10-16T16:06:50;98457.06;;;20.21;79.64
14273;BME280;7220;49.450;11.052;2022-10-16T16:11:02;98454.03;;;20.14;80.73
14273;BME280;7220;49.450;11.052;2022-10-16T16:15:07;98454.16;;;20.02;81.57
14273;BME280;7220;49.450;11.052;2022-10-16T16:19:08;98448.72;;;19.93;82.04
14273;BME280;7220;49.450;11.052;2022-10-16T16:23:09;98451.13;;;19.86;83.25
14273;BME280;7220;49.450;11.052;2022-10-16T16:27:09;98462.94;;;19.74;83.84
14273;BME280;7220;49.450;11.052;2022-10-16T16:31:10;98444.16;;;19.62;84.95
14273;BME280;7220;49.450;11.052;2022-10-16T16:35:10;98456.91;;;19.60;85.23
14273;BME280;7220;49.450;11.052;2022-10-16T16:39:11;98488.38;;;19.60;86.02
14273;BME280;7220;49.450;11.052;2022-10-16T16:43:11;98478.16;;;19.53;86.88
14273;BME280;7220;49.450;11.052;2022-10-16T16:47:11;98484.91;;;19.48;87.40
14273;BME280;7220;49.450;11.052;2022-10-16T16:51:17;98487.31;;;19.41;88.61
14273;BME280;7220;49.450;11.052;2022-10-16T16:55:19;98491.91;;;19.29;89.38
14273;BME280;7220;49.450;11.052;2022-10-16T16:59:20;98495.22;;;19.21;90.01
14273;BME280;7220;49.450;11.052;2022-10-16T17:03:21;98506.28;;;19.18;90.52
14273;BME280;7220;49.450;11.052;2022-10-16T17:07:22;98511.78;;;19.17;91.70
14273;BME280;7220;49.450;11.052;2022-10-16T17:11:25;98522.09;;;19.12;92.09
14273;BME280;7220;49.450;11.052;2022-10-16T17:15:26;98510.38;;;19.01;93.55
14273;BME280;7220;49.450;11.052;2022-10-16T17:19:26;98515.56;;;18.93;93.95
14273;BME280;7220;49.450;11.052;2022-10-16T17:23:26;98512.59;;;18.85;94.89
14273;BME280;7220;49.450;11.052;2022-10-16T17:27:27;98512.88;;;18.82;95.45
14273;BME280;7220;49.450;11.052;2022-10-16T17:31:33;98520.97;;;18.82;96.25
14273;BME280;7220;49.450;11.052;2022-10-16T17:35:45;98523.16;;;18.76;96.84
14273;BME280;7220;49.450;11.052;2022-10-16T17:39:49;98520.25;;;18.68;97.66
14273;BME280;7220;49.450;11.052;2022-10-16T17:43:50;98530.41;;;18.65;97.81
14273;BME280;7220;49.450;11.052;2022-10-16T17:47:51;98520.75;;;18.62;98.51
14273;BME280;7220;49.450;11.052;2022-10-16T17:51:53;98523.06;;;18.55;98.83
14273;BME280;7220;49.450;11.052;2022-10-16T17:55:53;98531.66;;;18.49;99.74
14273;BME280;7220;49.450;11.052;2022-10-16T17:59:58;98527.75;;;18.42;100.00
14273;BME280;7220;49.450;11.052;2022-10-16T18:04:04;98532.31;;;18.41;100.00
14273;BME280;7220;49.450;11.052;2022-10-16T18:08:06;98536.94;;;18.39;100.00
14273;BME280;7220;49.450;11.052;2022-10-16T18:12:06;98542.81;;;18.33;100.00
14273;BME280;7220;49.450;11.052;2022-10-16T18:16:11;98532.53;;;18.27;100.00
14273;BME280;7220;49.450;11.052;2022-10-16T18:20:12;98540.13;;;18.22;100.00
14273;BME280;7220;49.450;11.052;2022-10-16T18:24:12;98552.59;;;18.23;100.00
14273;BME280;7220;49.450;11.052;2022-10-16T18:28:12;98549.44;;;18.18;100.00
14273;BME280;7220;49.450;11.052;2022-10-16T18:32:13;98542.56;;;18.13;100.00
14273;BME280;7220;49.450;11.052;2022-10-16T18:36:14;98556.75;;;18.16;100.00
14273;BME280;7220;49.450;11.052;2022-10-16T18:40:14;98551.63;;;18.12;100.00
14273;BME280;7220;49.450;11.052;2022-10-16T18:44:15;98550.91;;;18.10;100.00
14273;BME280;7220;49.450;11.052;2022-10-16T18:48:15;98557.00;;;18.12;100.00
14273;BME280;7220;49.450;11.052;2022-10-16T18:52:15;98565.06;;;18.12;100.00
14273;BME280;7220;49.450;11.052;2022-10-16T18:56:17;98564.34;;;18.10;100.00
14273;BME280;7220;49.450;11.052;2022-10-16T19:00:18;98566.28;;;18.08;100.00
14273;BME280;7220;49.450;11.052;2022-10-16T19:04:18;98570.44;;;18.01;100.00
14273;BME280;7220;49.450;11.052;2022-10-16T19:08:20;98583.38;;;17.96;100.00
14273;BME280;7220;49.450;11.052;2022-10-16T19:12:21;98577.84;;;17.86;100.00
14273;BME280;7220;49.450;11.052;2022-10-16T19:16:24;98594.56;;;17.78;100.00
14273;BME280;7220;49.450;11.052;2022-10-16T19:20:24;98598.41;;;17.63;100.00
14273;BME280;7220;49.450;11.052;2022-10-16T19:24:25;98588.63;;;17.50;100.00
14273;BME280;7220;49.450;11.052;2022-10-16T19:28:25;98597.50;;;17.40;100.00
14273;BME280;7220;49.450;11.052;2022-10-16T19:32:25;98606.38;;;17.29;100.00
14273;BME280;7220;49.450;11.052;2022-10-16T19:36:36;98609.63;;;17.21;100.00
14273;BME280;7220;49.450;11.052;2022-10-16T19:40:36;98595.28;;;17.09;100.00
14273;BME280;7220;49.450;11.052;2022-10-16T19:44:37;98610.13;;;17.02;100.00
14273;BME280;7220;49.450;11.052;2022-10-16T19:48:38;98597.47;;;16.91;100.00
14273;BME280;7220;49.450;11.052;2022-10-16T19:52:39;98600.69;;;16.83;100.00
14273;BME280;7220;49.450;11.052;2022-10-16T19:56:40;98589.38;;;16.67;100.00
14273;BME280;7220;49.450;11.052;2022-10-16T20:00:41;98605.72;;;16.64;100.00
14273;BME280;7220;49.450;11.052;2022-10-16T20:04:41;98603.56;;;16.56;100.00
14273;BME280;7220;49.450;11.052;2022-10-16T20:08:43;98607.00;;;16.58;100.00
14273;BME280;7220;49.450;11.052;2022-10-16T20:12:44;98617.31;;;16.51;100.00
14273;BME280;7220;49.450;11.052;2022-10-16T20:16:45;98614.94;;;16.47;100.00
14273;BME280;7220;49.450;11.052;2022-10-16T20:20:46;98617.00;;;16.43;100.00
14273;BME280;7220;49.450;11.052;2022-10-16T20:24:51;98617.03;;;16.30;100.00
14273;BME280;7220;49.450;11.052;2022-10-16T20:28:52;98629.38;;;16.33;100.00
14273;BME280;7220;49.450;11.052;2022-10-16T20:32:52;98634.94;;;16.30;100.00
14273;BME280;7220;49.450;11.052;2022-10-16T20:36:54;98639.84;;;16.23;100.00
14273;BME280;7220;49.450;11.052;2022-10-16T20:40:55;98634.09;;;16.16;100.00
14273;BME280;7220;49.450;11.052;2022-10-16T20:44:55;98653.28;;;16.10;100.00
14273;BME280;7220;49.450;11.052;2022-10-16T20:48:56;98651.00;;;16.04;100.00
14273;BME280;7220;49.450;11.052;2022-10-16T20:52:57;98652.31;;;15.98;100.00
14273;BME280;7220;49.450;11.052;2022-10-16T20:56:58;98666.56;;;15.99;100.00
14273;BME280;7220;49.450;11.052;2022-10-16T21:01:06;98659.38;;;15.99;100.00
14273;BME280;7220;49.450;11.052;2022-10-16T21:05:07;98657.69;;;15.98;100.00
14273;BME280;7220;49.450;11.052;2022-10-16T21:09:07;98655.84;;;15.99;100.00
14273;BME280;7220;49.450;11.052;2022-10-16T21:13:08;98661.72;;;16.04;100.00
14273;BME280;7220;49.450;11.052;2022-10-16T21:17:08;98665.47;;;16.01;100.00
14273;BME280;7220;49.450;11.052;2022-10-16T21:21:09;98678.03;;;16.01;100.00
14273;BME280;7220;49.450;11.052;2022-10-16T21:25:11;98675.56;;;15.98;100.00
14273;BME280;7220;49.450;11.052;2022-10-16T21:29:11;98679.31;;;15.95;100.00
14273;BME280;7220;49.450;11.052;2022-10-16T21:33:12;98679.81;;;15.87;100.00
14273;BME280;7220;49.450;11.052;2022-10-16T21:37:12;98689.81;;;15.85;100.00
14273;BME280;7220;49.450;11.052;2022-10-16T21:41:15;98683.13;;;15.78;100.00
14273;BME280;7220;49.450;11.052;2022-10-16T21:45:15;98703.47;;;15.81;100.00
14273;BME280;7220;49.450;11.052;2022-10-16T21:49:17;98699.94;;;15.80;100.00
14273;BME280;7220;49.450;11.052;2022-10-16T21:53:18;98693.16;;;15.74;100.00
14273;BME280;7220;49.450;11.052;2022-10-16T21:57:18;98702.19;;;15.73;100.00
14273;BME280;7220;49.450;11.052;2022-10-16T22:01:20;98708.50;;;15.72;100.00
14273;BME280;7220;49.450;11.052;2022-10-16T22:05:21;98687.69;;;15.63;100.00
14273;BME280;7220;49.450;11.052;2022-10-16T22:09:21;98690.47;;;15.61;100.00
14273;BME280;7220;49.450;11.052;2022-10-16T22:13:21;98690.66;;;15.58;100.00
14273;BME280;7220;49.450;11.052;2022-10-16T22:17:21;98695.47;;;15.53;100.00
14273;BME280;7220;49.450;11.052;2022-10-16T22:21:24;98705.19;;;15.54;100.00
14273;BME280;7220;49.450;11.052;2022-10-16T22:25:25;98708.94;;;15.52;100.00
14273;BME280;7220;49.450;11.052;2022-10-16T22:29:25;98702.94;;;15.48;100.00
14273;BME280;7220;49.450;11.052;2022-10-16T22:33:25;98710.44;;;15.43;100.00
14273;BME280;7220;49.450;11.052;2022-10-16T22:37:26;98696.50;;;15.38;100.00
14273;BME280;7220;49.450;11.052;2022-10-16T22:41:26;98703.75;;;15.36;100.00
14273;BME280;7220;49.450;11.052;2022-10-16T22:45:26;98704.16;;;15.29;100.00
14273;BME280;7220;49.450;11.052;2022-10-16T22:49:27;98713.16;;;15.28;100.00
14273;BME280;7220;49.450;11.052;2022-10-16T22:53:27;98708.94;;;15.24;100.00
14273;BME280;7220;49.450;11.052;2022-10-16T22:57:28;98708.56;;;15.16;100.00
14273;BME280;7220;49.450;11.052;2022-10-16T23:01:34;98726.34;;;15.17;100.00
14273;BME280;7220;49.450;11.052;2022-10-16T23:05:42;98732.78;;;15.14;100.00
14273;BME280;7220;49.450;11.052;2022-10-16T23:09:42;98705.94;;;15.02;100.00
14273;BME280;7220;49.450;11.052;2022-10-16T23:13:42;98723.53;;;15.06;100.00
14273;BME280;7220;49.450;11.052;2022-10-16T23:17:44;98722.66;;;15.05;100.00
14273;BME280;7220;49.450;11.052;2022-10-16T23:21:44;98726.56;;;14.99;100.00
14273;BME280;7220;49.450;11.052;2022-10-16T23:25:45;98718.94;;;14.93;100.00
14273;BME280;7220;49.450;11.052;2022-10-16T23:29:46;98730.03;;;14.87;100.00
14273;BME280;7220;49.450;11.052;2022-10-16T23:33:46;98731.28;;;14.81;100.00
14273;BME280;7220;49.450;11.052;2022-10-16T23:37:46;98742.25;;;14.77;100.00
14273;BME280;7220;49.450;11.052;2022-10-16T23:41:47;98748.00;;;14.71;100.00
14273;BME280;7220;49.450;11.052;2022-10-16T23:45:47;98734.97;;;14.64;100.00
14273;BME280;7220;49.450;11.052;2022-10-16T23:49:47;98742.41;;;14.59;100.00
14273;BME280;7220;49.450;11.052;2022-10-16T23:53:48;98754.16;;;14.57;100.00
14273;BME280;7220;49.450;11.052;2022-10-16T23:57:48;98742.13;;;14.49;100.00
